createdAt,value
2023-03-04T00:01:50.457Z,98319.41
2023-03-04T00:04:17.500Z,98316.94
2023-03-04T00:06:44.093Z,98312.28
2023-03-04T00:09:10.762Z,98313.88
2023-03-04T00:11:37.334Z,98313.38
2023-03-04T00:14:03.962Z,98326.94
2023-03-04T00:16:30.622Z,98332.31
2023-03-04T00:18:57.695Z,98342.31
2023-03-04T00:21:24.388Z,98350.69
2023-03-04T00:23:51.036Z,98344.09
2023-03-04T00:26:17.736Z,98336.13
2023-03-04T00:28:45.603Z,98339.44
2023-03-04T00:31:12.210Z,98342.97
2023-03-04T00:33:40.340Z,98347.75
2023-03-04T00:36:07.340Z,98349.09
2023-03-04T00:38:33.998Z,98350.75
2023-03-04T00:41:02.181Z,98355.78
2023-03-04T00:43:29.832Z,98353.84
2023-03-04T00:45:56.599Z,98352.59
2023-03-04T00:48:23.266Z,98344.78
2023-03-04T00:50:51.697Z,98344.25
2023-03-04T00:53:18.382Z,98345.91
2023-03-04T00:55:44.961Z,98341.44
2023-03-04T00:58:11.579Z,98346.25
2023-03-04T01:00:38.177Z,98341.31
2023-03-04T01:03:04.927Z,98340.59
2023-03-04T01:05:34.190Z,98346.31
2023-03-04T01:08:00.790Z,98338.88
2023-03-04T01:10:27.903Z,98335.09
2023-03-04T01:12:54.488Z,98331.78
2023-03-04T01:15:21.075Z,98336.72
2023-03-04T01:17:47.758Z,98337.41
2023-03-04T01:20:15.316Z,98338.03
2023-03-04T01:22:41.941Z,98335.78
2023-03-04T01:25:11.004Z,98332.19
2023-03-04T01:27:37.624Z,98338.00
2023-03-04T01:30:04.684Z,98329.09
2023-03-04T01:32:31.361Z,98325.19
2023-03-04T01:34:57.995Z,98330.81
2023-03-04T01:37:24.644Z,98320.91
2023-03-04T01:39:51.261Z,98323.13
2023-03-04T01:42:21.771Z,98321.16
2023-03-04T01:44:48.529Z,98323.94
2023-03-04T01:47:15.273Z,98325.03
2023-03-04T01:49:41.981Z,98320.88
2023-03-04T01:52:12.422Z,98325.28
2023-03-04T01:54:39.160Z,98324.09
2023-03-04T01:57:25.484Z,98336.75
2023-03-04T02:00:14.830Z,98335.94
2023-03-04T02:02:41.820Z,98323.00
2023-03-04T02:05:08.554Z,98323.50
2023-03-04T02:07:35.184Z,98321.28
2023-03-04T02:10:01.846Z,98328.91
2023-03-04T02:12:28.424Z,98327.25
2023-03-04T02:14:55.027Z,98327.78
2023-03-04T02:17:28.053Z,98325.94
2023-03-04T02:20:15.731Z,98330.03
2023-03-04T02:22:47.530Z,98347.28
2023-03-04T02:25:18.378Z,98345.56
2023-03-04T02:27:44.986Z,98331.09
2023-03-04T02:30:12.230Z,98334.16
2023-03-04T02:32:38.904Z,98339.78
2023-03-04T02:35:06.045Z,98339.66
2023-03-04T02:37:32.667Z,98335.50
2023-03-04T02:39:59.942Z,98336.28
2023-03-04T02:42:26.540Z,98338.66
2023-03-04T02:44:59.463Z,98342.25
2023-03-04T02:47:26.125Z,98344.47
2023-03-04T02:49:54.905Z,98346.38
2023-03-04T02:52:22.955Z,98342.38
2023-03-04T02:54:49.718Z,98352.44
2023-03-04T02:57:17.299Z,98343.16
2023-03-04T02:59:47.958Z,98346.56
2023-03-04T03:02:18.786Z,98347.63
2023-03-04T03:04:45.497Z,98347.41
2023-03-04T03:07:15.161Z,98351.69
2023-03-04T03:09:43.160Z,98358.00
2023-03-04T03:12:09.845Z,98348.94
2023-03-04T03:14:37.746Z,98347.41
2023-03-04T03:17:05.902Z,98352.63
2023-03-04T03:19:32.530Z,98347.38
2023-03-04T03:22:01.717Z,98346.91
2023-03-04T03:24:28.405Z,98351.63
2023-03-04T03:26:55.892Z,98348.25
2023-03-04T03:29:22.745Z,98348.25
2023-03-04T03:31:49.396Z,98350.63
2023-03-04T03:34:15.994Z,98351.75
2023-03-04T03:36:42.733Z,98358.25
2023-03-04T03:39:09.363Z,98361.97
2023-03-04T03:41:35.936Z,98352.31
2023-03-04T03:44:02.604Z,98347.50
2023-03-04T03:46:29.916Z,98355.75
2023-03-04T03:48:56.521Z,98343.94
2023-03-04T03:51:23.109Z,98343.91
2023-03-04T03:53:49.729Z,98354.34
2023-03-04T03:56:16.590Z,98351.03
2023-03-04T03:58:43.196Z,98343.06
2023-03-04T04:01:09.854Z,98346.78
2023-03-04T04:03:36.465Z,98345.84
2023-03-04T04:06:03.092Z,98351.22
2023-03-04T04:08:29.684Z,98352.16
2023-03-04T04:10:56.299Z,98363.06
2023-03-04T04:13:22.894Z,98359.09
2023-03-04T04:15:51.658Z,98365.13
2023-03-04T04:18:18.229Z,98359.75
2023-03-04T04:20:44.854Z,98361.41
2023-03-04T04:23:11.574Z,98364.38
2023-03-04T04:25:38.193Z,98366.00
2023-03-04T04:28:04.806Z,98364.81
2023-03-04T04:30:31.486Z,98358.25
2023-03-04T04:33:01.555Z,98365.19
2023-03-04T04:35:28.614Z,98366.75
2023-03-04T04:37:55.277Z,98363.03
2023-03-04T04:40:21.896Z,98367.50
2023-03-04T04:42:48.481Z,98361.75
2023-03-04T04:45:15.109Z,98356.84
2023-03-04T04:47:41.731Z,98354.94
2023-03-04T04:50:08.889Z,98359.63
2023-03-04T04:52:35.909Z,98359.56
2023-03-04T04:55:02.846Z,98368.03
2023-03-04T04:57:29.471Z,98352.88
2023-03-04T04:59:56.114Z,98356.78
2023-03-04T05:02:22.775Z,98360.09
2023-03-04T05:04:49.383Z,98361.88
2023-03-04T05:07:16.078Z,98375.41
2023-03-04T05:09:42.685Z,98363.59
2023-03-04T05:12:09.274Z,98375.78
2023-03-04T05:14:35.879Z,98367.19
2023-03-04T05:17:02.566Z,98362.38
2023-03-04T05:19:29.232Z,98357.78
2023-03-04T05:21:55.869Z,98361.72
2023-03-04T05:24:22.515Z,98355.47
2023-03-04T05:26:49.099Z,98349.59
2023-03-04T05:29:15.732Z,98346.56
2023-03-04T05:31:42.325Z,98343.44
2023-03-04T05:34:08.928Z,98330.72
2023-03-04T05:36:35.513Z,98325.47
2023-03-04T05:39:02.088Z,98322.22
2023-03-04T05:41:28.746Z,98324.63
2023-03-04T05:43:56.498Z,98312.41
2023-03-04T05:46:25.509Z,98304.72
2023-03-04T05:48:53.390Z,98299.19
2023-03-04T05:51:20.192Z,98304.56
2023-03-04T05:53:46.842Z,98309.44
2023-03-04T05:56:15.263Z,98309.84
2023-03-04T05:58:41.976Z,98310.94
2023-03-04T06:01:08.705Z,98318.47
2023-03-04T06:03:35.471Z,98323.53
2023-03-04T06:06:02.081Z,98330.00
2023-03-04T06:08:28.633Z,98336.28
2023-03-04T06:10:56.201Z,98336.19
2023-03-04T06:13:22.920Z,98313.25
2023-03-04T06:15:54.507Z,98310.41
2023-03-04T06:18:21.134Z,98315.69
2023-03-04T06:20:47.833Z,98318.06
2023-03-04T06:23:14.402Z,98316.34
2023-03-04T06:25:41.020Z,98323.84
2023-03-04T06:28:07.596Z,98321.09
2023-03-04T06:30:34.254Z,98324.09
2023-03-04T06:33:00.866Z,98318.94
2023-03-04T06:35:27.494Z,98323.53
2023-03-04T06:37:54.110Z,98318.38
2023-03-04T06:40:20.782Z,98317.66
2023-03-04T06:42:47.403Z,98318.56
2023-03-04T06:45:14.115Z,98318.13
2023-03-04T06:47:40.725Z,98306.91
2023-03-04T06:50:07.651Z,98307.06
2023-03-04T06:52:34.290Z,98305.75
2023-03-04T06:55:00.943Z,98296.91
2023-03-04T06:57:27.573Z,98295.34
2023-03-04T06:59:54.171Z,98289.72
2023-03-04T07:02:20.791Z,98285.28
2023-03-04T07:04:47.440Z,98284.75
2023-03-04T07:07:14.041Z,98273.22
2023-03-04T07:09:40.796Z,98278.75
2023-03-04T07:12:07.429Z,98272.75
2023-03-04T07:14:34.027Z,98277.94
2023-03-04T07:17:00.599Z,98278.78
2023-03-04T07:19:27.255Z,98263.88
2023-03-04T07:21:53.899Z,98255.34
2023-03-04T07:24:20.562Z,98256.59
2023-03-04T07:26:47.178Z,98252.94
2023-03-04T07:29:13.780Z,98250.38
2023-03-04T07:31:40.507Z,98237.72
2023-03-04T07:34:08.592Z,98229.91
2023-03-04T07:36:36.058Z,98230.66
2023-03-04T07:39:02.712Z,98222.16
2023-03-04T07:41:30.147Z,98226.13
2023-03-04T07:43:57.818Z,98214.94
2023-03-04T07:46:24.723Z,98209.75
2023-03-04T07:48:51.324Z,98204.25
2023-03-04T07:51:19.886Z,98203.00
2023-03-04T07:53:47.980Z,98186.91
2023-03-04T07:56:19.002Z,98174.25
2023-03-04T07:58:45.592Z,98176.63
2023-03-04T08:01:13.435Z,98176.53
2023-03-04T08:03:40.044Z,98154.97
2023-03-04T08:06:11.497Z,98152.47
2023-03-04T08:08:38.082Z,98141.69
2023-03-04T08:11:09.755Z,98141.69
2023-03-04T08:13:36.336Z,98137.94
2023-03-04T08:16:03.068Z,98145.19
2023-03-04T08:18:29.755Z,98131.72
2023-03-04T08:20:56.413Z,98138.34
2023-03-04T08:23:23.098Z,98126.84
2023-03-04T08:25:49.767Z,98126.41
2023-03-04T08:28:17.128Z,98121.91
2023-03-04T08:30:43.925Z,98124.97
2023-03-04T08:33:10.596Z,98107.19
2023-03-04T08:35:38.616Z,98103.50
2023-03-04T08:38:05.531Z,98096.19
2023-03-04T08:40:32.388Z,98100.44
2023-03-04T08:42:58.984Z,98088.75
2023-03-04T08:45:26.186Z,98084.16
2023-03-04T08:47:52.757Z,98088.56
2023-03-04T08:50:21.361Z,98078.75
2023-03-04T08:52:49.131Z,98069.22
2023-03-04T08:55:15.917Z,98061.53
2023-03-04T08:57:42.642Z,98058.34
2023-03-04T09:00:09.997Z,98059.06
2023-03-04T09:02:36.554Z,98053.56
2023-03-04T09:05:03.239Z,98051.78
2023-03-04T09:07:29.889Z,98043.16
2023-03-04T09:09:56.477Z,98036.28
2023-03-04T09:12:23.074Z,98028.84
2023-03-04T09:15:01.163Z,98034.19
2023-03-04T09:17:35.256Z,98022.75
2023-03-04T09:20:04.301Z,98013.47
2023-03-04T09:22:31.240Z,98003.03
2023-03-04T09:24:57.840Z,98002.09
2023-03-04T09:27:24.522Z,97996.50
2023-03-04T09:29:51.118Z,97993.66
2023-03-04T09:32:18.124Z,97997.81
2023-03-04T09:34:44.738Z,97990.03
2023-03-04T09:37:11.476Z,97979.28
2023-03-04T09:39:38.317Z,97972.44
2023-03-04T09:42:05.058Z,97965.97
2023-03-04T09:44:34.411Z,97965.72
2023-03-04T09:47:03.295Z,97965.25
2023-03-04T09:49:30.389Z,97948.94
2023-03-04T09:52:24.162Z,97936.91
2023-03-04T09:55:04.713Z,97937.81
2023-03-04T09:57:54.394Z,97931.72
2023-03-04T10:00:27.887Z,97940.09
2023-03-04T10:03:03.185Z,97937.72
2023-03-04T10:05:29.983Z,97925.41
2023-03-04T10:07:58.786Z,97931.91
2023-03-04T10:10:27.592Z,97923.78
2023-03-04T10:12:54.192Z,97922.38
2023-03-04T10:15:40.190Z,97920.81
2023-03-04T10:18:24.366Z,97916.47
2023-03-04T10:21:02.416Z,97925.44
2023-03-04T10:23:29.529Z,97911.03
2023-03-04T10:25:56.285Z,97916.34
2023-03-04T10:28:27.193Z,97921.91
2023-03-04T10:31:09.574Z,97920.69
2023-03-04T10:33:37.676Z,97910.88
2023-03-04T10:36:23.930Z,97907.34
2023-03-04T10:38:52.987Z,97911.25
2023-03-04T10:41:24.877Z,97911.00
2023-03-04T10:44:09.587Z,97902.41
2023-03-04T10:46:40.020Z,97890.22
2023-03-04T10:49:06.680Z,97901.91
2023-03-04T10:51:46.193Z,97902.63
2023-03-04T10:54:32.254Z,97892.81
2023-03-04T10:57:04.114Z,97895.88
2023-03-04T10:59:46.404Z,97887.59
2023-03-04T11:02:32.596Z,97890.75
2023-03-04T11:05:06.671Z,97884.72
2023-03-04T11:07:52.216Z,97892.16
2023-03-04T11:10:21.690Z,97875.56
2023-03-04T11:13:11.677Z,97875.72
2023-03-04T11:15:58.786Z,97861.72
2023-03-04T11:18:41.531Z,97863.72
2023-03-04T11:21:08.578Z,97857.22
2023-03-04T11:23:45.444Z,97857.47
2023-03-04T11:26:14.933Z,97858.75
2023-03-04T11:28:54.196Z,97861.22
2023-03-04T11:31:23.789Z,97852.81
2023-03-04T11:34:26.995Z,97859.88
2023-03-04T11:37:16.998Z,97860.41
2023-03-04T11:39:51.438Z,97860.94
2023-03-04T11:42:25.389Z,97864.06
2023-03-04T11:44:51.978Z,97854.16
2023-03-04T11:47:34.069Z,97853.00
2023-03-04T11:50:22.409Z,97848.13
2023-03-04T11:53:00.518Z,97838.63
2023-03-04T11:55:47.724Z,97839.47
2023-03-04T11:58:33.047Z,97830.44
2023-03-04T12:01:23.600Z,97833.19
2023-03-04T12:04:02.492Z,97829.38
2023-03-04T12:07:07.780Z,97828.44
2023-03-04T12:09:58.926Z,97816.25
2023-03-04T12:12:58.580Z,97811.91
2023-03-04T12:15:28.269Z,97817.91
2023-03-04T12:18:30.833Z,97812.69
2023-03-04T12:20:57.370Z,97814.00
2023-03-04T12:23:30.934Z,97808.38
2023-03-04T12:26:16.235Z,97803.53
2023-03-04T12:29:10.457Z,97791.88
2023-03-04T12:31:46.825Z,97792.75
2023-03-04T12:34:31.848Z,97789.50
2023-03-04T12:37:20.222Z,97787.28
2023-03-04T12:39:52.583Z,97792.63
2023-03-04T12:42:40.660Z,97789.63
2023-03-04T12:45:26.713Z,97791.91
2023-03-04T12:48:05.984Z,97791.81
2023-03-04T12:50:39.605Z,97780.19
2023-03-04T12:53:20.795Z,97785.91
2023-03-04T12:55:47.575Z,97782.34
2023-03-04T12:58:18.735Z,97790.97
2023-03-04T13:00:48.091Z,97785.38
2023-03-04T13:03:20.807Z,97789.47
2023-03-04T13:06:09.020Z,97782.13
2023-03-04T13:08:40.943Z,97785.38
2023-03-04T13:11:25.960Z,97779.22
2023-03-04T13:14:15.154Z,97781.06
2023-03-04T13:16:47.555Z,97783.81
2023-03-04T13:19:54.859Z,97771.41
2023-03-04T13:22:39.720Z,97777.50
2023-03-04T13:25:42.567Z,97783.34
2023-03-04T13:28:10.453Z,97776.72
2023-03-04T13:30:39.648Z,97778.75
2023-03-04T13:33:09.364Z,97772.78
2023-03-04T13:35:58.155Z,97771.03
2023-03-04T13:38:37.333Z,97765.53
2023-03-04T13:41:19.815Z,97770.75
2023-03-04T13:43:50.564Z,97762.75
2023-03-04T13:46:20.193Z,97761.97
2023-03-04T13:48:49.933Z,97759.25
2023-03-04T13:51:29.240Z,97756.00
2023-03-04T13:53:59.514Z,97751.84
2023-03-04T13:56:42.518Z,97743.09
2023-03-04T13:59:08.985Z,97739.00
2023-03-04T14:01:39.557Z,97737.94
2023-03-04T14:04:35.569Z,97740.56
2023-03-04T14:07:04.553Z,97737.59
2023-03-04T14:09:32.885Z,97733.53
2023-03-04T14:12:03.956Z,97729.09
2023-03-04T14:14:39.824Z,97722.50
2023-03-04T14:17:06.755Z,97720.50
2023-03-04T14:19:38.480Z,97717.19
2023-03-04T14:22:25.121Z,97717.34
2023-03-04T14:25:06.296Z,97720.00
2023-03-04T14:27:36.142Z,97710.81
2023-03-04T14:30:44.458Z,97710.81
2023-03-04T14:33:16.499Z,97700.78
2023-03-04T14:35:47.623Z,97698.41
2023-03-04T14:38:38.168Z,97699.78
2023-03-04T14:41:18.918Z,97700.06
2023-03-04T14:44:18.467Z,97696.66
2023-03-04T14:47:07.069Z,97699.16
2023-03-04T14:49:35.929Z,97703.13
2023-03-04T14:52:02.581Z,97696.59
2023-03-04T14:54:37.115Z,97697.94
2023-03-04T14:57:26.559Z,97703.84
2023-03-04T14:59:53.769Z,97697.28
2023-03-04T15:02:23.753Z,97688.84
2023-03-04T15:04:51.304Z,97684.88
2023-03-04T15:07:31.718Z,97694.09
2023-03-04T15:09:58.677Z,97686.91
2023-03-04T15:12:27.727Z,97687.97
2023-03-04T15:14:56.708Z,97699.53
2023-03-04T15:17:33.015Z,97691.84
2023-03-04T15:20:00.297Z,97697.59
2023-03-04T15:22:27.042Z,97693.47
2023-03-04T15:24:53.758Z,97705.72
2023-03-04T15:27:21.364Z,97703.41
2023-03-04T15:29:48.020Z,97697.91
2023-03-04T15:32:15.386Z,97701.34
2023-03-04T15:34:42.018Z,97693.53
2023-03-04T15:37:09.961Z,97692.09
2023-03-04T15:39:36.740Z,97692.63
2023-03-04T15:42:03.593Z,97690.63
2023-03-04T15:44:30.441Z,97683.53
2023-03-04T15:46:57.064Z,97687.00
2023-03-04T15:49:24.067Z,97700.25
2023-03-04T15:51:50.836Z,97693.19
2023-03-04T15:54:17.871Z,97700.88
2023-03-04T15:56:44.572Z,97700.59
2023-03-04T15:59:12.618Z,97705.28
2023-03-04T16:01:39.323Z,97694.00
2023-03-04T16:04:06.094Z,97698.63
2023-03-04T16:06:32.816Z,97701.81
2023-03-04T16:08:59.518Z,97705.34
2023-03-04T16:11:27.062Z,97704.69
2023-03-04T16:13:54.077Z,97708.22
2023-03-04T16:16:20.958Z,97709.59
2023-03-04T16:18:47.892Z,97708.16
2023-03-04T16:21:16.439Z,97718.28
2023-03-04T16:23:44.568Z,97719.31
2023-03-04T16:26:21.529Z,97724.78
2023-03-04T16:28:48.163Z,97727.25
2023-03-04T16:31:15.276Z,97734.84
2023-03-04T16:33:42.210Z,97741.09
2023-03-04T16:36:25.600Z,97745.78
2023-03-04T16:38:55.997Z,97758.59
2023-03-04T16:41:25.235Z,97763.19
2023-03-04T16:43:51.948Z,97763.19
2023-03-04T16:46:18.987Z,97775.66
2023-03-04T16:48:46.856Z,97773.56
2023-03-04T16:51:18.536Z,97781.28
2023-03-04T16:53:48.323Z,97777.50
2023-03-04T16:56:16.497Z,97774.00
2023-03-04T16:58:43.678Z,97776.50
2023-03-04T17:01:30.721Z,97778.66
2023-03-04T17:03:57.572Z,97784.19
2023-03-04T17:06:24.438Z,97789.47
2023-03-04T17:08:51.181Z,97797.31
2023-03-04T17:11:20.099Z,97803.63
2023-03-04T17:13:46.858Z,97799.16
2023-03-04T17:16:13.721Z,97806.69
2023-03-04T17:18:41.225Z,97813.50
2023-03-04T17:21:11.980Z,97813.59
2023-03-04T17:23:38.619Z,97816.59
2023-03-04T17:26:05.552Z,97822.03
2023-03-04T17:28:32.283Z,97821.13
2023-03-04T17:30:58.905Z,97839.66
2023-03-04T17:33:25.509Z,97860.44
2023-03-04T17:35:52.322Z,97854.28
2023-03-04T17:38:18.999Z,97866.06
2023-03-04T17:40:47.773Z,97873.28
2023-03-04T17:43:14.629Z,97873.31
2023-03-04T17:45:41.748Z,97870.41
2023-03-04T17:48:14.837Z,97880.44
2023-03-04T17:50:51.158Z,97884.66
2023-03-04T17:53:17.966Z,97886.56
2023-03-04T17:55:52.054Z,97892.16
2023-03-04T17:58:18.909Z,97896.03
2023-03-04T18:00:45.882Z,97898.03
2023-03-04T18:03:12.932Z,97894.38
2023-03-04T18:05:39.724Z,97905.00
2023-03-04T18:08:06.448Z,97904.84
2023-03-04T18:10:33.289Z,97914.63
2023-03-04T18:12:59.891Z,97905.56
2023-03-04T18:15:26.504Z,97907.94
2023-03-04T18:17:53.172Z,97913.63
2023-03-04T18:20:19.823Z,97924.47
2023-03-04T18:22:49.571Z,97912.63
2023-03-04T18:25:16.931Z,97917.84
2023-03-04T18:27:43.622Z,97915.78
2023-03-04T18:30:12.094Z,97925.72
2023-03-04T18:32:51.325Z,97944.28
2023-03-04T18:35:19.716Z,97945.03
2023-03-04T18:37:46.853Z,97956.28
2023-03-04T18:40:14.026Z,97951.00
2023-03-04T18:42:40.810Z,97952.72
2023-03-04T18:45:08.225Z,97955.44
2023-03-04T18:47:34.912Z,97956.09
2023-03-04T18:50:01.533Z,97975.38
2023-03-04T18:52:28.563Z,97991.97
2023-03-04T18:54:55.239Z,97998.41
2023-03-04T18:57:21.994Z,97997.53
2023-03-04T18:59:54.442Z,97995.28
2023-03-04T19:02:25.762Z,98006.91
2023-03-04T19:04:52.403Z,98014.63
2023-03-04T19:07:19.162Z,98037.63
2023-03-04T19:09:45.944Z,98034.03
2023-03-04T19:12:12.714Z,98039.34
2023-03-04T19:14:39.380Z,98033.00
2023-03-04T19:17:06.020Z,98030.53
2023-03-04T19:19:32.992Z,98037.69
2023-03-04T19:21:59.875Z,98059.50
2023-03-04T19:24:26.516Z,98069.50
2023-03-04T19:26:53.315Z,98049.91
2023-03-04T19:29:20.508Z,98050.19
2023-03-04T19:31:47.372Z,98050.94
2023-03-04T19:34:14.053Z,98055.41
2023-03-04T19:36:40.782Z,98057.50
2023-03-04T19:39:08.899Z,98053.03
2023-03-04T19:41:35.813Z,98073.22
2023-03-04T19:44:02.565Z,98079.13
2023-03-04T19:46:29.852Z,98088.63
2023-03-04T19:48:56.594Z,98083.19
2023-03-04T19:51:26.116Z,98096.50
2023-03-04T19:53:53.136Z,98097.69
2023-03-04T19:56:20.245Z,98108.84
2023-03-04T19:58:50.231Z,98126.91
2023-03-04T20:01:28.286Z,98125.53
2023-03-04T20:03:56.107Z,98124.59
2023-03-04T20:06:24.100Z,98130.06
2023-03-04T20:08:51.386Z,98124.16
2023-03-04T20:11:18.568Z,98130.22
2023-03-04T20:13:45.282Z,98123.69
2023-03-04T20:16:15.189Z,98119.34
2023-03-04T20:18:42.339Z,98126.34
2023-03-04T20:21:09.190Z,98138.88
2023-03-04T20:23:36.172Z,98147.88
2023-03-04T20:26:03.161Z,98157.47
2023-03-04T20:28:30.090Z,98157.03
2023-03-04T20:31:19.840Z,98161.22
2023-03-04T20:33:48.778Z,98171.78
2023-03-04T20:36:16.326Z,98162.78
2023-03-04T20:38:42.996Z,98163.16
2023-03-04T20:41:10.046Z,98170.25
2023-03-04T20:43:36.802Z,98173.44
2023-03-04T20:46:26.227Z,98177.00
2023-03-04T20:48:54.019Z,98173.59
2023-03-04T20:51:20.613Z,98180.25
2023-03-04T20:53:50.728Z,98177.13
2023-03-04T20:56:18.203Z,98182.84
2023-03-04T20:58:46.406Z,98182.00
2023-03-04T21:01:16.068Z,98182.22
2023-03-04T21:03:42.819Z,98183.59
2023-03-04T21:06:10.467Z,98198.00
2023-03-04T21:08:37.139Z,98188.84
2023-03-04T21:11:03.852Z,98176.94
2023-03-04T21:13:30.798Z,98190.50
2023-03-04T21:15:57.818Z,98180.72
2023-03-04T21:18:29.501Z,98176.53
2023-03-04T21:20:56.320Z,98179.88
2023-03-04T21:23:23.106Z,98158.91
2023-03-04T21:25:49.751Z,98165.94
2023-03-04T21:28:16.518Z,98165.88
2023-03-04T21:30:43.233Z,98169.56
2023-03-04T21:33:17.945Z,98171.75
2023-03-04T21:35:45.150Z,98174.59
2023-03-04T21:38:11.793Z,98177.94
2023-03-04T21:40:38.420Z,98176.28
2023-03-04T21:43:07.005Z,98167.47
2023-03-04T21:45:33.800Z,98163.25
2023-03-04T21:48:00.436Z,98161.94
2023-03-04T21:50:27.044Z,98153.28
2023-03-04T21:52:53.728Z,98137.09
2023-03-04T21:55:20.466Z,98141.81
2023-03-04T21:57:47.231Z,98136.56
2023-03-04T22:00:14.312Z,98143.31
2023-03-04T22:02:41.014Z,98146.81
2023-03-04T22:05:08.114Z,98152.63
2023-03-04T22:07:34.887Z,98152.41
2023-03-04T22:10:03.180Z,98159.94
2023-03-04T22:12:29.929Z,98159.41
2023-03-04T22:14:56.574Z,98156.63
2023-03-04T22:17:23.295Z,98153.41
2023-03-04T22:19:50.015Z,98159.44
2023-03-04T22:22:18.920Z,98161.03
2023-03-04T22:24:45.577Z,98147.66
2023-03-04T22:27:12.160Z,98153.97
2023-03-04T22:29:38.977Z,98152.78
2023-03-04T22:32:05.875Z,98159.25
2023-03-04T22:34:32.528Z,98160.66
2023-03-04T22:36:59.144Z,98160.50
2023-03-04T22:39:25.763Z,98154.22
2023-03-04T22:41:52.363Z,98146.19
2023-03-04T22:44:19.137Z,98146.84
2023-03-04T22:46:45.877Z,98140.16
2023-03-04T22:49:13.096Z,98151.25
2023-03-04T22:51:43.915Z,98151.56
2023-03-04T22:54:19.854Z,98145.66
2023-03-04T22:56:46.626Z,98152.34
2023-03-04T22:59:13.470Z,98143.22
2023-03-04T23:01:43.417Z,98159.50
2023-03-04T23:04:11.692Z,98157.03
2023-03-04T23:06:38.395Z,98143.59
2023-03-04T23:09:05.069Z,98135.09
2023-03-04T23:11:32.918Z,98142.31
2023-03-04T23:14:02.186Z,98140.66
2023-03-04T23:16:28.968Z,98147.31
2023-03-04T23:18:57.111Z,98138.22
2023-03-04T23:21:25.629Z,98137.97
2023-03-04T23:23:52.712Z,98129.63
2023-03-04T23:26:21.205Z,98118.94
2023-03-04T23:28:48.107Z,98131.13
2023-03-04T23:31:14.979Z,98114.53
2023-03-04T23:33:45.825Z,98110.78
2023-03-04T23:36:15.244Z,98093.38
2023-03-04T23:38:42.640Z,98094.84
2023-03-04T23:41:20.401Z,98085.25
2023-03-04T23:43:47.285Z,98082.38
2023-03-04T23:46:14.231Z,98082.72
2023-03-04T23:48:43.149Z,98068.56
2023-03-04T23:51:09.886Z,98069.97
2023-03-04T23:53:38.954Z,98058.00
2023-03-04T23:56:12.697Z,98056.84
2023-03-04T23:58:39.523Z,98047.13
